createdAt,value
2018-05-07T00:00:06.512Z,14.89
2018-05-07T00:02:36.129Z,14.72
2018-05-07T00:05:06.999Z,14.51
2018-05-07T00:07:36.610Z,14.48
2018-05-07T00:13:43.339Z,14.56
2018-05-07T00:16:12.885Z,14.54
2018-05-07T00:18:42.614Z,14.50
2018-05-07T00:21:12.142Z,14.44
2018-05-07T00:23:41.663Z,14.33
2018-05-07T00:26:11.361Z,14.23
2018-05-07T00:28:40.564Z,14.08
2018-05-07T00:31:10.263Z,14.07
2018-05-07T00:33:39.503Z,13.90
2018-05-07T00:36:09.111Z,13.81
2018-05-07T00:38:38.661Z,13.90
2018-05-07T00:41:08.457Z,13.86
2018-05-07T00:43:38.391Z,13.93
2018-05-07T00:46:07.933Z,14.04
2018-05-07T00:48:37.481Z,13.96
2018-05-07T00:51:07.395Z,13.90
2018-05-07T00:53:37.367Z,13.91
2018-05-07T00:56:06.911Z,13.86
2018-05-07T00:58:36.881Z,13.74
2018-05-07T01:01:06.549Z,13.72
2018-05-07T01:03:36.461Z,13.70
2018-05-07T01:06:06.157Z,13.68
2018-05-07T01:08:35.769Z,13.67
2018-05-07T01:11:05.686Z,13.68
2018-05-07T01:13:35.625Z,13.67
2018-05-07T01:16:05.193Z,13.72
2018-05-07T01:18:34.709Z,13.74
2018-05-07T01:21:04.792Z,13.78
2018-05-07T01:23:34.381Z,13.70
2018-05-07T01:26:03.879Z,13.70
2018-05-07T01:28:33.419Z,13.67
2018-05-07T01:31:03.005Z,13.65
2018-05-07T01:33:32.515Z,13.71
2018-05-07T01:36:02.070Z,13.49
2018-05-07T01:38:31.996Z,13.42
2018-05-07T01:41:01.930Z,13.36
2018-05-07T01:43:31.444Z,13.34
2018-05-07T01:46:01.220Z,13.34
2018-05-07T01:48:31.133Z,13.20
2018-05-07T01:51:01.070Z,13.30
2018-05-07T01:53:30.647Z,13.24
2018-05-07T01:56:00.162Z,13.13
2018-05-07T01:58:30.072Z,12.95
2018-05-07T02:01:00.024Z,12.85
2018-05-07T02:03:29.539Z,12.83
2018-05-07T02:05:59.071Z,12.67
2018-05-07T02:08:28.641Z,12.72
2018-05-07T02:10:58.163Z,12.85
2018-05-07T02:13:27.689Z,12.87
2018-05-07T02:15:57.283Z,13.08
2018-05-07T02:18:26.999Z,13.14
2018-05-07T02:20:56.506Z,13.04
2018-05-07T02:23:26.109Z,12.88
2018-05-07T02:25:55.667Z,12.70
2018-05-07T02:28:25.598Z,12.74
2018-05-07T02:30:54.989Z,12.77
2018-05-07T02:33:24.912Z,12.74
2018-05-07T02:35:54.772Z,12.79
2018-05-07T02:38:24.298Z,12.87
2018-05-07T02:40:54.296Z,12.55
2018-05-07T02:43:23.879Z,12.43
2018-05-07T02:45:53.598Z,12.43
2018-05-07T02:48:23.270Z,12.44
2018-05-07T02:50:53.195Z,12.48
2018-05-07T02:53:22.729Z,12.56
2018-05-07T02:55:52.295Z,12.37
2018-05-07T02:58:22.267Z,12.21
2018-05-07T03:00:51.795Z,12.12
2018-05-07T03:03:21.341Z,12.11
2018-05-07T03:05:50.945Z,12.06
2018-05-07T03:08:20.479Z,12.14
2018-05-07T03:10:50.047Z,12.14
2018-05-07T03:13:20.259Z,12.29
2018-05-07T03:15:50.215Z,12.28
2018-05-07T03:18:19.751Z,12.29
2018-05-07T03:20:49.309Z,12.27
2018-05-07T03:23:18.820Z,12.44
2018-05-07T03:25:48.411Z,12.51
2018-05-07T03:28:18.311Z,12.37
2018-05-07T03:30:48.133Z,12.19
2018-05-07T03:33:17.805Z,12.16
2018-05-07T03:35:47.494Z,12.12
2018-05-07T03:38:17.053Z,12.10
2018-05-07T03:40:47.271Z,11.98
2018-05-07T03:43:16.461Z,11.91
2018-05-07T03:45:46.125Z,12.10
2018-05-07T03:48:15.665Z,12.13
2018-05-07T03:50:45.948Z,12.06
2018-05-07T03:53:15.511Z,12.09
2018-05-07T03:55:45.145Z,12.08
2018-05-07T03:58:14.700Z,11.88
2018-05-07T04:00:44.273Z,11.73
2018-05-07T04:03:13.618Z,11.77
2018-05-07T04:05:43.175Z,11.84
2018-05-07T04:08:13.277Z,11.84
2018-05-07T04:10:43.198Z,11.98
2018-05-07T04:13:12.769Z,11.89
2018-05-07T04:15:42.493Z,12.01
2018-05-07T04:18:28.869Z,12.13
2018-05-07T04:21:14.412Z,12.11
2018-05-07T04:24:05.900Z,12.28
2018-05-07T04:26:35.416Z,12.54
2018-05-07T04:29:05.424Z,12.40
2018-05-07T04:31:35.359Z,12.23
2018-05-07T04:34:05.329Z,12.13
2018-05-07T04:36:34.747Z,12.32
2018-05-07T04:39:03.759Z,12.51
2018-05-07T04:41:33.696Z,12.68
2018-05-07T04:44:02.922Z,12.81
2018-05-07T04:46:32.439Z,12.86
2018-05-07T04:49:01.993Z,13.03
2018-05-07T04:51:32.010Z,13.24
2018-05-07T04:54:01.722Z,14.02
2018-05-07T04:56:31.645Z,15.55
2018-05-07T04:59:01.323Z,17.24
2018-05-07T05:01:30.601Z,18.40
2018-05-07T05:04:00.182Z,19.52
2018-05-07T05:06:29.708Z,20.46
2018-05-07T05:09:00.016Z,21.28
2018-05-07T05:11:30.122Z,21.96
2018-05-07T05:14:00.972Z,21.16
2018-05-07T05:16:31.126Z,21.14
2018-05-07T05:19:01.606Z,20.29
2018-05-07T05:21:31.775Z,19.57
2018-05-07T05:24:01.459Z,19.44
2018-05-07T05:26:30.988Z,18.30
2018-05-07T05:29:00.505Z,18.77
2018-05-07T05:31:30.054Z,19.26
2018-05-07T05:33:59.680Z,19.75
2018-05-07T05:36:29.188Z,20.36
2018-05-07T05:38:58.767Z,20.28
2018-05-07T05:41:28.680Z,20.43
2018-05-07T05:43:58.596Z,19.96
2018-05-07T05:46:28.549Z,19.63
2018-05-07T05:48:58.717Z,19.12
2018-05-07T05:51:28.294Z,18.67
2018-05-07T05:53:57.865Z,18.97
2018-05-07T05:56:27.445Z,18.65
2018-05-07T05:58:57.148Z,17.75
2018-05-07T06:01:26.669Z,16.86
2018-05-07T06:03:56.682Z,16.02
2018-05-07T06:06:26.311Z,15.90
2018-05-07T06:08:55.838Z,15.24
2018-05-07T06:11:25.642Z,15.14
2018-05-07T06:13:55.149Z,14.92
2018-05-07T06:16:24.670Z,14.70
2018-05-07T06:18:54.206Z,14.73
2018-05-07T06:21:23.967Z,14.68
2018-05-07T06:23:54.062Z,14.64
2018-05-07T06:26:23.698Z,14.78
2018-05-07T06:28:53.246Z,14.93
2018-05-07T06:31:22.794Z,15.19
2018-05-07T06:33:52.323Z,14.89
2018-05-07T06:36:21.856Z,14.85
2018-05-07T06:38:51.630Z,14.84
2018-05-07T06:41:21.359Z,14.80
2018-05-07T06:43:51.063Z,14.69
2018-05-07T06:46:20.789Z,14.91
2018-05-07T06:48:50.353Z,15.20
2018-05-07T06:51:19.987Z,15.38
2018-05-07T06:53:49.563Z,15.14
2018-05-07T06:56:18.913Z,15.26
2018-05-07T06:58:48.475Z,15.39
2018-05-07T07:01:18.031Z,15.53
2018-05-07T07:03:47.579Z,15.69
2018-05-07T07:06:17.495Z,15.97
2018-05-07T07:08:47.423Z,16.21
2018-05-07T07:11:17.043Z,16.22
2018-05-07T07:13:46.587Z,16.13
2018-05-07T07:16:16.162Z,16.60
2018-05-07T07:18:45.684Z,16.69
2018-05-07T07:21:15.223Z,16.57
2018-05-07T07:23:44.743Z,16.51
2018-05-07T07:26:14.311Z,16.21
2018-05-07T07:28:43.850Z,16.79
2018-05-07T07:31:13.772Z,15.93
2018-05-07T07:33:43.733Z,16.04
2018-05-07T07:36:13.812Z,16.48
2018-05-07T07:38:43.727Z,16.67
2018-05-07T07:41:13.658Z,16.90
2018-05-07T07:43:43.556Z,17.18
2018-05-07T07:46:13.481Z,16.98
2018-05-07T07:48:43.402Z,17.16
2018-05-07T07:51:13.055Z,16.77
2018-05-07T07:53:42.604Z,16.79
2018-05-07T07:56:12.556Z,16.92
2018-05-07T07:58:42.074Z,17.30
2018-05-07T08:01:11.643Z,17.18
2018-05-07T08:03:41.559Z,17.14
2018-05-07T08:06:11.478Z,17.22
2018-05-07T08:08:41.011Z,16.92
2018-05-07T08:11:10.317Z,17.48
2018-05-07T08:13:39.877Z,17.52
2018-05-07T08:16:09.791Z,17.29
2018-05-07T08:18:39.719Z,17.16
2018-05-07T08:21:09.253Z,17.64
2018-05-07T08:23:38.787Z,17.54
2018-05-07T08:26:08.336Z,17.34
2018-05-07T08:29:31.161Z,17.18
2018-05-07T08:32:00.721Z,17.41
2018-05-07T08:34:30.293Z,17.40
2018-05-07T08:37:00.225Z,17.49
2018-05-07T08:39:29.756Z,17.63
2018-05-07T08:41:59.279Z,18.08
2018-05-07T08:44:28.859Z,18.57
2018-05-07T08:46:58.379Z,18.54
2018-05-07T08:49:27.901Z,18.54
2018-05-07T08:51:57.424Z,18.15
2018-05-07T08:54:26.982Z,18.58
2018-05-07T08:56:56.830Z,18.00
2018-05-07T08:59:26.339Z,18.29
2018-05-07T09:01:56.289Z,18.23
2018-05-07T09:04:26.205Z,18.38
2018-05-07T09:06:56.141Z,17.99
2018-05-07T09:09:25.672Z,18.51
2018-05-07T09:11:55.232Z,19.00
2018-05-07T09:14:25.205Z,19.16
2018-05-07T09:16:54.725Z,18.97
2018-05-07T09:19:24.248Z,18.84
2018-05-07T09:21:53.788Z,18.69
2018-05-07T09:24:23.415Z,19.01
2018-05-07T09:26:52.943Z,19.33
2018-05-07T09:29:22.479Z,19.17
2018-05-07T09:31:52.176Z,18.90
2018-05-07T09:34:21.707Z,19.14
2018-05-07T09:36:51.634Z,18.85
2018-05-07T09:39:21.160Z,19.05
2018-05-07T09:41:50.520Z,19.10
2018-05-07T09:44:20.495Z,19.16
2018-05-07T09:46:50.032Z,19.40
2018-05-07T09:49:19.583Z,19.16
2018-05-07T09:51:49.095Z,19.32
2018-05-07T09:54:18.657Z,19.38
2018-05-07T09:56:56.500Z,19.66
2018-05-07T09:59:26.145Z,19.85
2018-05-07T10:01:56.154Z,19.65
2018-05-07T10:04:25.715Z,20.00
2018-05-07T10:06:55.230Z,20.19
2018-05-07T10:09:24.771Z,20.23
2018-05-07T10:11:54.305Z,20.21
2018-05-07T10:14:23.827Z,20.23
2018-05-07T10:16:53.753Z,20.17
2018-05-07T10:19:23.275Z,19.91
2018-05-07T10:21:52.880Z,20.15
2018-05-07T10:24:22.529Z,20.32
2018-05-07T10:26:52.051Z,20.27
2018-05-07T10:29:21.579Z,20.38
2018-05-07T10:31:51.492Z,20.31
2018-05-07T10:34:21.443Z,20.49
2018-05-07T10:36:50.984Z,20.40
2018-05-07T10:39:20.563Z,20.34
2018-05-07T10:41:50.111Z,20.54
2018-05-07T10:44:19.645Z,20.62
2018-05-07T10:46:49.207Z,20.62
2018-05-07T10:49:18.754Z,21.00
2018-05-07T10:51:48.475Z,21.04
2018-05-07T10:54:17.983Z,20.75
2018-05-07T10:56:48.093Z,20.88
2018-05-07T10:59:18.235Z,21.08
2018-05-07T11:01:48.339Z,20.84
2018-05-07T11:04:18.443Z,20.94
2018-05-07T11:06:48.517Z,21.21
2018-05-07T11:09:19.047Z,21.36
2018-05-07T11:11:49.263Z,21.93
2018-05-07T11:14:19.527Z,21.80
2018-05-07T11:16:49.623Z,21.24
2018-05-07T11:19:19.825Z,21.52
2018-05-07T11:21:50.550Z,21.50
2018-05-07T11:24:20.626Z,21.33
2018-05-07T11:26:50.733Z,21.44
2018-05-07T11:29:20.821Z,21.79
2018-05-07T11:31:50.897Z,21.56
2018-05-07T11:34:21.024Z,21.88
2018-05-07T11:36:51.189Z,21.82
2018-05-07T11:39:21.307Z,21.57
2018-05-07T11:41:51.793Z,21.87
2018-05-07T11:44:21.895Z,21.85
2018-05-07T11:46:52.037Z,21.86
2018-05-07T11:49:22.153Z,22.11
2018-05-07T11:51:52.262Z,22.26
2018-05-07T11:54:22.377Z,22.44
2018-05-07T11:56:52.307Z,22.65
2018-05-07T11:59:22.385Z,22.67
2018-05-07T12:01:52.487Z,22.33
2018-05-07T12:04:23.025Z,22.61
2018-05-07T12:06:53.143Z,22.44
2018-05-07T12:09:23.260Z,23.04
2018-05-07T12:11:53.359Z,22.97
2018-05-07T12:14:23.596Z,22.79
2018-05-07T12:16:54.062Z,22.52
2018-05-07T12:19:24.185Z,22.47
2018-05-07T12:21:54.256Z,23.07
2018-05-07T12:24:24.811Z,23.22
2018-05-07T12:26:55.116Z,23.28
2018-05-07T12:29:27.649Z,23.25
2018-05-07T12:31:57.816Z,23.27
2018-05-07T12:34:28.450Z,22.98
2018-05-07T12:36:58.566Z,23.15
2018-05-07T12:39:29.104Z,23.29
2018-05-07T12:41:59.211Z,23.20
2018-05-07T12:44:29.502Z,23.08
2018-05-07T12:46:59.612Z,22.86
2018-05-07T12:49:29.732Z,23.13
2018-05-07T12:52:00.011Z,23.22
2018-05-07T12:54:30.512Z,23.41
2018-05-07T12:57:00.620Z,23.54
2018-05-07T12:59:30.895Z,23.87
2018-05-07T13:02:00.962Z,23.76
2018-05-07T13:04:31.046Z,23.96
2018-05-07T13:07:01.172Z,24.07
2018-05-07T13:09:31.280Z,23.84
2018-05-07T13:12:01.400Z,24.11
2018-05-07T13:14:31.559Z,23.83
2018-05-07T13:17:01.650Z,23.76
2018-05-07T13:19:31.748Z,23.90
2018-05-07T13:22:01.839Z,23.97
2018-05-07T13:24:31.933Z,23.99
2018-05-07T13:27:02.072Z,23.97
2018-05-07T13:29:32.162Z,24.16
2018-05-07T13:32:02.268Z,24.06
2018-05-07T13:34:32.362Z,23.86
2018-05-07T13:37:02.848Z,23.95
2018-05-07T13:39:32.946Z,23.61
2018-05-07T13:42:03.274Z,23.88
2018-05-07T13:44:33.424Z,23.99
2018-05-07T13:47:03.208Z,24.24
2018-05-07T13:49:33.310Z,24.43
2018-05-07T13:52:04.129Z,24.76
2018-05-07T13:54:34.273Z,24.83
2018-05-07T13:57:04.400Z,24.60
2018-05-07T13:59:34.651Z,24.54
2018-05-07T14:02:04.744Z,24.20
2018-05-07T14:04:34.860Z,24.30
2018-05-07T14:07:04.939Z,24.70
2018-05-07T14:09:35.118Z,24.65
2018-05-07T14:12:05.210Z,24.67
2018-05-07T14:14:35.344Z,24.28
2018-05-07T14:17:05.417Z,24.17
2018-05-07T14:19:35.934Z,24.04
2018-05-07T14:22:06.434Z,24.22
2018-05-07T14:24:36.557Z,24.26
2018-05-07T14:27:07.584Z,24.41
2018-05-07T14:29:37.702Z,24.34
2018-05-07T14:32:07.794Z,24.11
2018-05-07T14:34:38.703Z,24.08
2018-05-07T14:37:08.444Z,23.95
2018-05-07T14:39:38.544Z,23.90
2018-05-07T14:42:08.664Z,23.85
2018-05-07T14:44:39.212Z,23.85
2018-05-07T14:47:09.324Z,24.08
2018-05-07T14:49:39.422Z,23.98
2018-05-07T14:52:09.908Z,23.94
2018-05-07T14:54:40.494Z,23.84
2018-05-07T14:57:10.980Z,23.95
2018-05-07T14:59:41.349Z,24.01
2018-05-07T15:02:11.490Z,24.04
2018-05-07T15:04:41.579Z,24.10
2018-05-07T15:07:12.072Z,24.11
2018-05-07T15:09:42.186Z,24.21
2018-05-07T15:12:12.479Z,24.33
2018-05-07T15:14:42.580Z,24.55
2018-05-07T15:17:13.077Z,24.48
2018-05-07T15:19:43.192Z,24.40
2018-05-07T15:22:13.289Z,24.27
2018-05-07T15:24:47.894Z,24.29
2018-05-07T15:27:18.047Z,24.34
2018-05-07T15:29:48.146Z,24.54
2018-05-07T15:32:18.226Z,24.58
2018-05-07T15:34:48.710Z,24.36
2018-05-07T15:37:18.822Z,24.42
2018-05-07T15:39:48.952Z,24.57
2018-05-07T15:42:19.165Z,24.47
2018-05-07T15:44:49.320Z,24.31
2018-05-07T15:47:19.374Z,24.13
2018-05-07T15:49:50.044Z,24.18
2018-05-07T15:52:20.129Z,24.43
2018-05-07T15:54:50.280Z,24.54
2018-05-07T15:57:20.150Z,24.62
2018-05-07T15:59:51.020Z,24.56
2018-05-07T16:02:21.163Z,24.76
2018-05-07T16:04:51.304Z,24.46
2018-05-07T16:07:23.112Z,24.64
2018-05-07T16:09:53.320Z,24.52
2018-05-07T16:12:23.436Z,24.58
2018-05-07T16:14:53.596Z,24.79
2018-05-07T16:17:23.667Z,24.82
2018-05-07T16:19:54.147Z,24.63
2018-05-07T16:22:24.792Z,24.66
2018-05-07T16:24:54.628Z,24.78
2018-05-07T16:27:25.118Z,24.69
2018-05-07T16:29:55.244Z,24.67
2018-05-07T16:32:25.418Z,24.78
2018-05-07T16:34:55.508Z,24.89
2018-05-07T16:37:25.604Z,25.00
2018-05-07T16:39:55.838Z,24.96
2018-05-07T16:42:25.935Z,24.81
2018-05-07T16:44:56.225Z,24.70
2018-05-07T16:47:26.389Z,24.64
2018-05-07T16:49:56.500Z,24.48
2018-05-07T16:52:26.681Z,24.35
2018-05-07T16:54:57.247Z,24.28
2018-05-07T16:57:27.380Z,24.27
2018-05-07T16:59:57.502Z,24.17
2018-05-07T17:02:27.608Z,24.04
2018-05-07T17:04:57.721Z,23.87
2018-05-07T17:07:27.851Z,23.88
2018-05-07T17:09:58.033Z,23.86
2018-05-07T17:12:28.515Z,23.73
2018-05-07T17:14:58.619Z,23.86
2018-05-07T17:17:28.720Z,23.75
2018-05-07T17:22:34.524Z,23.62
2018-05-07T17:25:04.273Z,23.49
2018-05-07T17:27:34.797Z,23.51
2018-05-07T17:30:05.911Z,23.45
2018-05-07T17:36:12.725Z,23.21
2018-05-07T17:38:42.788Z,23.07
2018-05-07T17:41:12.933Z,22.96
2018-05-07T17:43:43.120Z,22.75
2018-05-07T17:46:30.005Z,22.71
2018-05-07T17:48:59.922Z,22.59
2018-05-07T17:51:30.410Z,22.43
2018-05-07T17:54:00.558Z,22.44
2018-05-07T17:56:30.652Z,22.36
2018-05-07T17:59:00.767Z,22.33
2018-05-07T18:01:30.906Z,22.18
2018-05-07T18:04:01.204Z,22.10
2018-05-07T18:06:31.323Z,22.01
2018-05-07T18:09:01.247Z,22.02
2018-05-07T18:11:31.654Z,21.95
2018-05-07T18:14:01.903Z,21.95
2018-05-07T18:16:32.008Z,21.85
2018-05-07T18:19:02.251Z,21.82
2018-05-07T18:21:32.741Z,21.75
2018-05-07T18:24:02.934Z,21.76
2018-05-07T18:26:33.534Z,21.69
2018-05-07T18:29:04.167Z,21.65
2018-05-07T18:31:34.260Z,21.47
2018-05-07T18:34:04.386Z,21.18
2018-05-07T18:36:34.278Z,21.00
2018-05-07T18:39:04.183Z,20.85
2018-05-07T18:41:35.471Z,20.85
2018-05-07T18:44:05.654Z,20.76
2018-05-07T18:46:35.758Z,20.73
2018-05-07T18:49:06.150Z,20.74
2018-05-07T18:51:36.303Z,20.70
2018-05-07T18:54:06.397Z,20.73
2018-05-07T18:56:36.245Z,20.55
2018-05-07T18:59:06.673Z,20.54
2018-05-07T19:01:36.192Z,20.55
2018-05-07T19:04:05.721Z,20.59
2018-05-07T19:06:35.811Z,20.61
2018-05-07T19:09:05.029Z,20.62
2018-05-07T19:11:34.979Z,20.50
2018-05-07T19:14:05.468Z,20.41
2018-05-07T19:16:35.639Z,20.38
2018-05-07T19:19:05.751Z,20.31
2018-05-07T19:21:35.888Z,20.20
2018-05-07T19:24:04.846Z,20.06
2018-05-07T19:26:34.963Z,19.91
2018-05-07T19:29:05.823Z,19.74
2018-05-07T19:31:35.364Z,19.65
2018-05-07T19:34:04.914Z,19.66
2018-05-07T19:36:34.463Z,19.56
2018-05-07T19:39:03.533Z,19.44
2018-05-07T19:41:33.529Z,19.43
2018-05-07T19:44:03.080Z,19.30
2018-05-07T19:46:35.409Z,19.22
2018-05-07T19:49:05.150Z,19.13
2018-05-07T19:51:34.793Z,19.16
2018-05-07T19:54:04.923Z,19.16
2018-05-07T19:56:34.445Z,19.02
2018-05-07T19:59:03.651Z,18.88
2018-05-07T20:01:33.183Z,18.72
2018-05-07T20:04:03.538Z,18.65
2018-05-07T20:06:33.309Z,18.64
2018-05-07T20:09:03.267Z,18.65
2018-05-07T20:11:33.395Z,18.57
2018-05-07T20:14:02.935Z,18.62
2018-05-07T20:16:32.548Z,18.53
2018-05-07T20:19:02.173Z,18.51
2018-05-07T20:21:32.179Z,18.62
2018-05-07T20:24:01.885Z,18.64
2018-05-07T20:26:31.489Z,18.71
2018-05-07T20:29:00.787Z,18.67
2018-05-07T20:31:30.841Z,18.78
2018-05-07T20:34:00.189Z,18.68
2018-05-07T20:36:29.506Z,18.51
2018-05-07T20:38:59.045Z,18.54
2018-05-07T20:42:30.391Z,18.61
2018-05-07T20:45:00.358Z,18.39
2018-05-07T20:47:29.593Z,18.24
2018-05-07T20:49:59.111Z,18.18
2018-05-07T20:52:29.087Z,18.07
2018-05-07T20:54:58.607Z,18.06
2018-05-07T20:57:28.367Z,17.84
2018-05-07T20:59:57.689Z,17.68
2018-05-07T21:02:27.214Z,17.64
2018-05-07T21:04:56.773Z,17.66
2018-05-07T21:07:26.683Z,17.45
2018-05-07T21:09:56.289Z,17.32
2018-05-07T21:12:26.217Z,17.27
2018-05-07T21:14:55.945Z,17.10
2018-05-07T21:17:25.489Z,16.96
2018-05-07T21:19:55.027Z,16.97
2018-05-07T21:22:24.716Z,17.19
2018-05-07T21:24:54.009Z,17.38
2018-05-07T21:27:23.811Z,17.43
2018-05-07T21:29:53.364Z,17.43
2018-05-07T21:32:22.900Z,17.30
2018-05-07T21:34:52.593Z,17.11
2018-05-07T21:37:22.144Z,17.25
2018-05-07T21:39:51.681Z,17.31
2018-05-07T21:42:21.611Z,17.27
2018-05-07T21:44:51.527Z,17.38
2018-05-07T21:47:21.141Z,17.29
2018-05-07T21:49:50.697Z,17.10
2018-05-07T21:52:20.259Z,17.10
2018-05-07T21:54:49.799Z,16.85
2018-05-07T21:57:19.335Z,16.72
2018-05-07T21:59:48.858Z,16.88
2018-05-07T22:02:18.941Z,16.89
2018-05-07T22:04:49.078Z,16.86
2018-05-07T22:07:18.090Z,16.79
2018-05-07T22:09:48.053Z,16.67
2018-05-07T22:12:17.844Z,16.61
2018-05-07T22:14:47.525Z,16.68
2018-05-07T22:17:17.499Z,16.67
2018-05-07T22:19:47.033Z,16.54
2018-05-07T22:22:16.576Z,16.45
2018-05-07T22:24:45.815Z,16.39
2018-05-07T22:27:15.352Z,16.32
2018-05-07T22:29:45.368Z,16.37
2018-05-07T22:32:15.324Z,16.41
2018-05-07T22:34:45.419Z,16.67
2018-05-07T22:37:14.924Z,16.79
2018-05-07T22:39:44.889Z,16.89
2018-05-07T22:42:14.192Z,16.85
2018-05-07T22:44:43.817Z,16.65
2018-05-07T22:47:13.342Z,16.56
2018-05-07T22:49:43.417Z,16.54
2018-05-07T22:52:13.057Z,16.48
2018-05-07T22:54:42.630Z,16.50
2018-05-07T22:57:12.167Z,16.46
2018-05-07T22:59:42.034Z,16.48
2018-05-07T23:02:11.674Z,16.47
2018-05-07T23:04:41.236Z,16.47
2018-05-07T23:07:10.766Z,16.58
2018-05-07T23:09:40.386Z,16.37
2018-05-07T23:12:09.978Z,16.59
2018-05-07T23:14:39.490Z,16.36
2018-05-07T23:17:08.790Z,16.20
2018-05-07T23:19:38.344Z,16.15
2018-05-07T23:22:07.888Z,16.00
2018-05-07T23:24:37.415Z,15.99
2018-05-07T23:27:07.066Z,16.17
2018-05-07T23:29:37.232Z,16.08
2018-05-07T23:32:06.780Z,16.10
2018-05-07T23:34:36.328Z,16.16
2018-05-07T23:37:05.862Z,16.17
2018-05-07T23:39:35.451Z,16.14
2018-05-07T23:42:04.764Z,15.97
2018-05-07T23:44:34.308Z,16.05
2018-05-07T23:47:03.838Z,16.06
2018-05-07T23:49:33.852Z,15.85
2018-05-07T23:52:03.784Z,15.81
2018-05-07T23:54:33.323Z,15.81
2018-05-07T23:57:02.894Z,15.77
2018-05-07T23:59:32.803Z,15.88
